Time;durP1;ratioP1;P1;durP2;ratioP2;P2;SDS_P1;SDS_P2;PMS_P1;PMS_P2;Temp;Humidity;BMP_temperature;BMP_pressure;BME280_temperature;BME280_humidity;BME280_pressure;Samples;Min_cycle;Max_cycle;Signal;HPM_P1;HPM_P2
2023/08/07 00:00:13;;;;;;;5.10;1.90;;;;;;;13.65;100.00;98948.66;223557;1264;141664;-91
2023/08/07 00:05:14;;;;;;;4.70;1.90;;;;;;;13.62;100.00;98952.98;224149;1265;139603;-91
2023/08/07 00:10:14;;;;;;;2.40;1.70;;;;;;;13.59;100.00;98954.64;223588;1265;140721;-92
2023/08/07 00:15:15;;;;;;;4.10;1.90;;;;;;;13.61;100.00;98953.73;224105;1264;139090;-92
2023/08/07 00:20:15;;;;;;;3.80;2.10;;;;;;;13.62;100.00;98956.77;223387;1265;142314;-91
2023/08/07 00:25:16;;;;;;;6.90;2.00;;;;;;;13.63;100.00;98946.65;224007;1264;138788;-92
2023/08/07 00:30:16;;;;;;;3.80;1.80;;;;;;;13.63;100.00;98954.86;223694;1265;141653;-89
2023/08/07 00:35:17;;;;;;;3.80;1.60;;;;;;;13.63;100.00;98953.52;224145;1265;138870;-91
2023/08/07 00:40:17;;;;;;;6.20;2.80;;;;;;;13.63;100.00;98960.23;223632;1266;140856;-90
2023/08/07 00:45:18;;;;;;;4.80;2.20;;;;;;;13.62;100.00;98967.45;224088;1265;138795;-90
2023/08/07 00:50:18;;;;;;;5.20;2.00;;;;;;;13.62;100.00;98966.59;223365;1265;140860;-88
2023/08/07 00:55:19;;;;;;;6.60;2.30;;;;;;;13.59;100.00;98959.39;223896;1265;139078;-92
2023/08/07 01:00:20;;;;;;;6.20;2.10;;;;;;;13.56;100.00;98956.29;223564;1266;141789;-88
2023/08/07 01:05:21;;;;;;;3.70;1.90;;;;;;;13.54;100.00;98963.28;224088;1266;139263;-88
2023/08/07 01:10:35;;;;;;;6.30;2.20;;;;;;;13.54;100.00;98969.70;223600;1265;140832;-87
2023/08/07 01:15:37;;;;;;;5.90;2.00;;;;;;;13.53;100.00;98969.98;223904;1269;139012;-86
2023/08/07 01:20:38;;;;;;;5.90;2.30;;;;;;;13.51;100.00;98968.66;223521;1265;140822;-88
2023/08/07 01:25:39;;;;;;;5.70;2.00;;;;;;;13.50;100.00;98970.42;223916;1269;139922;-87
2023/08/07 01:30:44;;;;;;;6.10;2.50;;;;;;;13.48;100.00;98960.77;223549;1264;143831;-88
2023/08/07 01:35:51;;;;;;;7.50;2.60;;;;;;;13.47;100.00;98955.02;223999;1267;139090;-86
2023/08/07 01:40:53;;;;;;;4.80;1.90;;;;;;;13.46;100.00;98948.33;223412;1266;141281;-87
2023/08/07 01:45:53;;;;;;;6.70;2.20;;;;;;;13.45;100.00;98954.84;224045;1265;139447;-88
2023/08/07 01:50:55;;;;;;;5.90;2.20;;;;;;;13.44;100.00;98955.64;223517;1265;142146;-90
2023/08/07 01:55:56;;;;;;;4.20;1.90;;;;;;;13.42;100.00;98954.27;223875;1265;139393;-86
2023/08/07 02:00:56;;;;;;;3.60;1.70;;;;;;;13.41;100.00;98953.66;223342;1265;141294;-84
2023/08/07 02:05:56;;;;;;;6.30;1.90;;;;;;;13.40;100.00;98956.13;223988;1266;139481;-86
2023/08/07 02:10:57;;;;;;;4.50;1.80;;;;;;;13.38;100.00;98953.91;223516;1265;142621;-85
2023/08/07 02:15:57;;;;;;;4.80;1.80;;;;;;;13.36;100.00;98943.92;223975;1265;138675;-88
2023/08/07 02:20:58;;;;;;;5.80;1.80;;;;;;;13.35;100.00;98941.41;223517;1265;140741;-85
2023/08/07 02:25:59;;;;;;;4.40;1.60;;;;;;;13.32;100.00;98937.30;223861;1265;139146;-86
2023/08/07 02:30:59;;;;;;;5.00;2.10;;;;;;;13.30;100.00;98930.41;223532;1267;142455;-86
2023/08/07 02:36:00;;;;;;;4.80;2.10;;;;;;;13.27;100.00;98930.23;223870;1268;138981;-87
2023/08/07 02:41:00;;;;;;;4.60;1.90;;;;;;;13.24;100.00;98924.07;223610;1265;141367;-85
2023/08/07 02:46:00;;;;;;;5.20;2.30;;;;;;;13.21;100.00;98924.23;224055;1265;138532;-88
2023/08/07 02:51:01;;;;;;;4.80;2.00;;;;;;;13.18;100.00;98933.45;223448;1268;142071;-86
2023/08/07 02:56:01;;;;;;;5.20;1.80;;;;;;;13.16;100.00;98931.67;224025;1268;138813;-86
2023/08/07 03:01:08;;;;;;;8.90;2.10;;;;;;;13.14;100.00;98935.91;223328;1268;141828;-86
2023/08/07 03:06:09;;;;;;;3.00;1.80;;;;;;;13.13;100.00;98942.26;223980;1268;138934;-85
2023/08/07 03:11:09;;;;;;;5.70;2.00;;;;;;;13.12;100.00;98948.58;223503;1266;141382;-85
2023/08/07 03:16:10;;;;;;;4.70;1.80;;;;;;;13.10;100.00;98958.10;224152;1265;96105;-86
2023/08/07 03:21:10;;;;;;;4.00;1.80;;;;;;;13.08;100.00;98961.45;223426;1266;141449;-85
2023/08/07 03:26:12;;;;;;;4.30;2.00;;;;;;;13.05;100.00;98961.45;223981;1265;139937;-87
2023/08/07 03:31:12;;;;;;;4.50;2.10;;;;;;;13.00;100.00;98964.95;223436;1267;141474;-89
2023/08/07 03:36:13;;;;;;;6.10;2.10;;;;;;;12.94;100.00;98968.44;223875;1265;139485;-89
2023/08/07 03:41:13;;;;;;;7.40;1.80;;;;;;;12.88;100.00;98974.42;223298;1267;140605;-84
2023/08/07 03:46:14;;;;;;;3.70;1.90;;;;;;;12.81;100.00;98986.17;224076;1266;95968;-86
2023/08/07 03:51:17;;;;;;;6.70;1.50;;;;;;;12.75;100.00;98999.06;223404;1265;140495;-86
2023/08/07 03:56:17;;;;;;;5.80;2.10;;;;;;;12.71;100.00;99011.77;223910;1267;138806;-85
2023/08/07 04:01:18;;;;;;;7.20;2.20;;;;;;;12.69;100.00;99018.67;223494;1265;142238;-84
2023/08/07 04:06:19;;;;;;;5.20;2.30;;;;;;;12.67;100.00;99020.05;224054;1266;139282;-88
2023/08/07 04:11:19;;;;;;;4.90;2.10;;;;;;;12.67;100.00;99019.83;223489;1265;140695;-86
2023/08/07 04:16:20;;;;;;;6.20;1.80;;;;;;;12.67;100.00;99018.09;223998;1265;95979;-84
2023/08/07 04:21:20;;;;;;;3.50;2.10;;;;;;;12.68;100.00;99028.87;223448;1267;140309;-85
2023/08/07 04:26:21;;;;;;;5.10;2.10;;;;;;;12.70;100.00;99036.48;223935;1265;139312;-85
2023/08/07 04:31:22;;;;;;;4.50;2.10;;;;;;;12.72;100.00;99033.51;223448;1267;140824;-86
2023/08/07 04:36:23;;;;;;;5.40;2.20;;;;;;;12.73;100.00;99029.73;223957;1267;138921;-86
2023/08/07 04:41:24;;;;;;;6.30;2.20;;;;;;;12.74;100.00;99025.43;223259;1267;140534;-85
2023/08/07 04:46:24;;;;;;;6.80;2.10;;;;;;;12.75;100.00;99023.34;224121;1266;95864;-84
2023/08/07 04:51:25;;;;;;;5.90;2.30;;;;;;;12.78;100.00;99013.35;223380;1265;140445;-85
2023/08/07 04:56:25;;;;;;;8.10;2.50;;;;;;;12.82;100.00;99012.57;223941;1267;139004;-84
2023/08/07 05:01:26;;;;;;;8.80;2.60;;;;;;;12.85;100.00;99020.39;223445;1265;141007;-87
2023/08/07 05:06:26;;;;;;;5.40;2.30;;;;;;;12.88;100.00;99022.15;223790;1265;139163;-86
2023/08/07 05:11:27;;;;;;;4.30;2.20;;;;;;;12.95;100.00;99028.02;223296;1264;140526;-86
2023/08/07 05:16:27;;;;;;;6.60;2.40;;;;;;;13.02;100.00;99022.02;224068;1265;96079;-87
2023/08/07 05:21:30;;;;;;;9.20;2.30;;;;;;;13.09;100.00;99026.46;223211;1265;140514;-87
2023/08/07 05:26:31;;;;;;;6.10;3.00;;;;;;;13.15;100.00;99030.20;223905;1265;138885;-86
2023/08/07 05:31:31;;;;;;;5.80;2.20;;;;;;;13.23;100.00;99034.45;223389;1265;141107;-85
2023/08/07 05:36:32;;;;;;;7.80;2.50;;;;;;;13.34;100.00;99030.80;223932;1265;138985;-85
2023/08/07 05:41:33;;;;;;;5.30;2.20;;;;;;;13.55;100.00;99036.15;223217;1265;141325;-86
2023/08/07 05:46:33;;;;;;;6.00;2.70;;;;;;;13.87;100.00;99042.83;224045;1265;95850;-85
2023/08/07 05:51:34;;;;;;;9.40;2.30;;;;;;;14.28;100.00;99050.58;223437;1265;141397;-90
2023/08/07 05:56:34;;;;;;;6.50;2.20;;;;;;;14.74;100.00;99054.65;223808;1267;140835;-87
2023/08/07 06:01:36;;;;;;;6.90;2.30;;;;;;;15.17;100.00;99060.14;223361;1266;140281;-92
2023/08/07 06:06:39;;;;;;;6.00;2.40;;;;;;;15.55;100.00;99069.78;223896;1265;139524;-88
2023/08/07 06:11:40;;;;;;;7.90;2.30;;;;;;;15.90;100.00;99073.35;223299;1265;141335;-93
2023/08/07 06:16:40;;;;;;;6.20;2.10;;;;;;;16.22;100.00;99076.36;223866;1269;106632;-86
2023/08/07 06:21:41;;;;;;;6.70;2.10;;;;;;;16.51;100.00;99077.91;223343;1265;141397;-86
2023/08/07 06:26:41;;;;;;;7.60;2.30;;;;;;;16.72;100.00;99092.75;223953;1264;138624;-88
2023/08/07 06:31:42;;;;;;;4.90;2.00;;;;;;;16.84;100.00;99101.45;223269;1265;140315;-87
2023/08/07 06:36:42;;;;;;;8.00;2.00;;;;;;;16.90;100.00;99104.99;223982;1265;139409;-87
2023/08/07 06:41:43;;;;;;;6.00;1.90;;;;;;;16.95;100.00;99107.82;223273;1265;141095;-89
2023/08/07 06:46:43;;;;;;;5.00;2.30;;;;;;;17.03;100.00;99105.94;224038;1265;95912;-84
2023/08/07 06:51:44;;;;;;;5.50;2.20;;;;;;;17.13;100.00;99115.28;223234;1265;140651;-84
2023/08/07 06:56:44;;;;;;;7.30;2.00;;;;;;;17.23;100.00;99123.11;223891;1265;138980;-84
2023/08/07 07:01:45;;;;;;;6.30;2.20;;;;;;;17.27;100.00;99126.83;223356;1265;140969;-84
2023/08/07 07:06:45;;;;;;;5.70;2.00;;;;;;;17.32;100.00;99125.42;223883;1265;138971;-85
2023/08/07 07:11:46;;;;;;;5.90;2.40;;;;;;;17.46;100.00;99127.83;223297;1265;140582;-86
2023/08/07 07:16:46;;;;;;;5.90;2.00;;;;;;;17.49;99.92;99130.08;224027;1265;96496;-88
2023/08/07 07:21:47;;;;;;;5.80;2.20;;;;;;;17.55;99.75;99135.80;223390;1264;140515;-85
2023/08/07 07:26:47;;;;;;;7.20;2.30;;;;;;;17.58;99.58;99141.91;223970;1264;138608;-89
2023/08/07 07:31:50;;;;;;;7.50;2.50;;;;;;;17.63;99.48;99145.86;223392;1265;141425;-85
2023/08/07 07:36:51;;;;;;;6.00;2.70;;;;;;;17.67;99.31;99153.73;223789;1265;138882;-91
2023/08/07 07:41:51;;;;;;;5.60;2.50;;;;;;;17.64;98.57;99153.14;223432;1265;140889;-85
2023/08/07 07:46:51;;;;;;;8.60;2.50;;;;;;;17.63;99.91;99164.13;224025;1265;95973;-86
2023/08/07 07:51:52;;;;;;;5.90;2.70;;;;;;;17.71;99.09;99175.98;223368;1266;141169;-88
2023/08/07 07:56:52;;;;;;;7.10;3.20;;;;;;;17.79;98.93;99175.84;223827;1265;138912;-92
2023/08/07 08:01:53;;;;;;;8.50;3.10;;;;;;;17.87;98.67;99167.39;223425;1265;141934;-88
2023/08/07 08:06:54;;;;;;;6.10;2.60;;;;;;;17.99;97.42;99165.14;223942;1265;138587;-85
2023/08/07 08:11:54;;;;;;;4.90;2.60;;;;;;;18.14;97.70;99169.14;223393;1265;140735;-91
2023/08/07 08:16:55;;;;;;;8.20;4.10;;;;;;;18.26;96.49;99166.84;224061;1265;95979;-88
2023/08/07 08:21:55;;;;;;;5.70;3.10;;;;;;;18.50;95.49;99171.45;223406;1264;140060;-91
2023/08/07 08:26:56;;;;;;;6.60;3.20;;;;;;;18.61;94.27;99175.67;223969;1265;139093;-89
2023/08/07 08:31:57;;;;;;;7.40;2.80;;;;;;;18.78;94.38;99179.59;223407;1265;140431;-86
2023/08/07 08:36:57;;;;;;;6.40;2.90;;;;;;;18.90;93.13;99188.23;223944;1265;139465;-86
2023/08/07 08:41:59;;;;;;;4.90;2.40;;;;;;;19.01;92.31;99191.28;223296;1265;141793;-85
2023/08/07 08:47:00;;;;;;;5.90;2.60;;;;;;;19.11;91.74;99191.94;224109;1265;95927;-88
2023/08/07 08:52:01;;;;;;;7.80;2.60;;;;;;;19.16;91.97;99196.98;223306;1265;140047;-85
2023/08/07 08:57:03;;;;;;;6.70;2.70;;;;;;;19.28;92.68;99204.87;223925;1265;139044;-85
2023/08/07 09:02:04;;;;;;;8.60;2.90;;;;;;;19.27;91.32;99212.10;223277;1265;140908;-86
2023/08/07 09:07:06;;;;;;;5.70;3.00;;;;;;;19.28;91.52;99205.59;223826;1265;138596;-91
2023/08/07 09:12:12;;;;;;;6.80;3.00;;;;;;;19.36;90.46;99196.94;223261;1265;142435;-88
2023/08/07 09:17:14;;;;;;;8.10;2.60;;;;;;;19.46;88.53;99198.09;223777;1265;138771;-86
2023/08/07 09:22:15;;;;;;;5.80;2.90;;;;;;;19.67;88.97;99206.84;223601;1265;140818;-89
2023/08/07 09:27:16;;;;;;;7.20;2.90;;;;;;;19.79;87.51;99211.73;224025;1265;139745;-85
2023/08/07 09:32:18;;;;;;;6.80;2.40;;;;;;;19.89;84.90;99218.00;223456;1265;140311;-88
2023/08/07 09:37:19;;;;;;;6.70;2.60;;;;;;;19.91;83.47;99221.62;223741;1265;139362;-85
2023/08/07 09:42:19;;;;;;;9.00;2.40;;;;;;;20.00;83.61;99224.80;223054;1264;395415;-85
2023/08/07 09:47:20;;;;;;;4.80;2.10;;;;;;;20.00;80.92;99233.27;223983;1265;138807;-89
2023/08/07 09:52:21;;;;;;;5.20;2.30;;;;;;;19.99;80.34;99227.66;223511;1265;140627;-86
2023/08/07 09:57:21;;;;;;;7.70;2.70;;;;;;;19.99;81.06;99229.09;223819;1265;138721;-85
2023/08/07 10:02:22;;;;;;;3.80;2.00;;;;;;;19.96;81.57;99236.17;223449;1265;140944;-88
2023/08/07 10:07:24;;;;;;;7.30;2.20;;;;;;;19.99;80.93;99234.48;224016;1265;138717;-88
2023/08/07 10:12:26;;;;;;;6.40;2.30;;;;;;;20.05;80.44;99241.55;223412;1265;140377;-86
2023/08/07 10:17:27;;;;;;;6.20;2.20;;;;;;;20.06;78.61;99236.91;223801;1265;139054;-86
2023/08/07 10:22:33;;;;;;;6.20;2.00;;;;;;;20.11;78.34;99242.90;223555;1265;141611;-88
2023/08/07 10:27:37;;;;;;;5.90;2.10;;;;;;;20.20;78.15;99248.15;223948;1264;139735;-88
2023/08/07 10:32:38;;;;;;;5.40;2.40;;;;;;;20.29;77.60;99249.58;223334;1265;141917;-86
2023/08/07 10:37:44;;;;;;;4.50;1.90;;;;;;;20.36;78.35;99246.52;223974;1264;138959;-87
2023/08/07 10:42:54;;;;;;;5.80;1.80;;;;;;;20.39;76.14;99242.23;223292;1265;140636;-90
2023/08/07 10:48:13;;;;;;;5.60;2.00;;;;;;;20.43;76.06;99247.75;223802;1265;138959;-91
2023/08/07 10:53:29;;;;;;;5.10;2.00;;;;;;;20.47;76.44;99249.59;223442;1265;140768;-90
2023/08/07 10:58:32;;;;;;;6.40;2.40;;;;;;;20.46;76.79;99247.23;224089;1265;95841;-88
2023/08/07 11:03:36;;;;;;;6.50;1.70;;;;;;;20.44;76.93;99249.25;223367;1264;140185;-86
2023/08/07 11:08:40;;;;;;;6.20;1.90;;;;;;;20.36;75.27;99249.88;224003;1264;138642;-86
2023/08/07 11:13:41;;;;;;;5.80;1.90;;;;;;;20.41;78.34;99254.81;223599;1265;140473;-87
2023/08/07 11:18:42;;;;;;;4.20;1.90;;;;;;;20.65;78.12;99255.14;224028;1265;138889;-86
2023/08/07 11:23:44;;;;;;;4.50;2.00;;;;;;;20.94;77.93;99248.10;223326;1265;140767;-88
2023/08/07 11:28:44;;;;;;;6.30;2.20;;;;;;;21.37;76.62;99248.21;223991;1264;95828;-88
2023/08/07 11:33:45;;;;;;;5.50;1.90;;;;;;;21.63;72.99;99260.82;223348;1264;142067;-86
2023/08/07 11:38:46;;;;;;;6.70;1.90;;;;;;;21.69;71.65;99271.04;224023;1264;138481;-87
2023/08/07 11:43:47;;;;;;;5.80;2.10;;;;;;;21.80;70.81;99280.54;223277;1265;139864;-86
2023/08/07 11:48:48;;;;;;;4.90;2.00;;;;;;;21.86;71.85;99287.79;224022;1266;139179;-88
2023/08/07 11:53:49;;;;;;;3.60;1.90;;;;;;;21.98;69.59;99290.20;223496;1265;139708;-84
2023/08/07 11:58:51;;;;;;;5.40;2.20;;;;;;;22.08;69.37;99293.50;224177;1264;95837;-84
2023/08/07 12:03:54;;;;;;;4.80;2.00;;;;;;;22.10;68.15;99302.86;223487;1265;140001;-84
2023/08/07 12:08:57;;;;;;;3.90;1.80;;;;;;;22.09;68.44;99311.73;223909;1265;138197;-84
2023/08/07 12:14:01;;;;;;;4.50;1.80;;;;;;;22.10;67.46;99321.54;223648;1265;137987;-87
2023/08/07 12:19:03;;;;;;;5.50;1.50;;;;;;;22.10;67.18;99336.73;223404;1264;139392;-86
2023/08/07 12:24:06;;;;;;;5.50;1.70;;;;;;;21.95;66.27;99335.06;223869;1264;139758;-85
2023/08/07 12:29:07;;;;;;;4.50;1.90;;;;;;;21.73;66.39;99348.42;223541;1265;139965;-86
2023/08/07 12:34:09;;;;;;;5.80;1.60;;;;;;;21.44;69.99;99359.48;223992;1268;96074;-85
2023/08/07 12:39:10;;;;;;;4.20;2.00;;;;;;;21.11;71.19;99365.45;223449;1265;141128;-84
2023/08/07 12:44:12;;;;;;;4.90;1.90;;;;;;;20.78;73.74;99372.79;224028;1265;138077;-84
2023/08/07 12:49:13;;;;;;;6.60;1.90;;;;;;;20.57;74.63;99368.84;223550;1265;140622;-91
2023/08/07 12:54:13;;;;;;;4.20;1.80;;;;;;;20.34;75.34;99371.96;224079;1266;138276;-85
2023/08/07 12:59:14;;;;;;;7.20;1.90;;;;;;;20.22;77.62;99373.73;223552;1265;140166;-85
2023/08/07 13:04:16;;;;;;;3.70;1.80;;;;;;;20.03;76.50;99384.14;224137;1265;106747;-86
2023/08/07 13:09:16;;;;;;;6.80;2.60;;;;;;;19.73;78.43;99401.35;223421;1265;141042;-86
2023/08/07 13:14:17;;;;;;;5.30;2.00;;;;;;;19.35;81.82;99394.84;223862;1265;141310;-85
2023/08/07 13:19:18;;;;;;;3.20;1.80;;;;;;;19.08;84.02;99397.91;223524;1265;141148;-86
2023/08/07 13:24:18;;;;;;;5.10;2.30;;;;;;;18.89;86.00;99396.81;224082;1265;139149;-84
2023/08/07 13:29:19;;;;;;;7.00;2.70;;;;;;;18.80;87.39;99395.67;223369;1265;141332;-87
2023/08/07 13:34:19;;;;;;;6.80;2.60;;;;;;;18.79;88.15;99386.77;224166;1265;95946;-86
2023/08/07 13:39:20;;;;;;;8.10;2.40;;;;;;;18.68;88.78;99377.40;223487;1265;141111;-86
2023/08/07 13:44:22;;;;;;;5.00;2.70;;;;;;;18.71;89.75;99374.40;224076;1265;139723;-86
2023/08/07 13:49:23;;;;;;;5.00;2.20;;;;;;;18.76;89.75;99372.59;223435;1265;140365;-87
2023/08/07 13:54:24;;;;;;;7.50;2.00;;;;;;;18.75;89.91;99382.73;224127;1265;139937;-86
2023/08/07 13:59:24;;;;;;;6.40;2.40;;;;;;;18.74;90.09;99391.93;223410;1265;140731;-89
2023/08/07 14:04:26;;;;;;;6.70;2.60;;;;;;;18.73;90.07;99393.56;224157;1265;105727;-86
2023/08/07 14:09:27;;;;;;;5.20;2.30;;;;;;;18.73;90.67;99401.90;223432;1265;140771;-86
2023/08/07 14:14:27;;;;;;;5.70;2.50;;;;;;;18.77;90.54;99410.52;224111;1265;139355;-88
2023/08/07 14:19:28;;;;;;;4.90;2.10;;;;;;;18.70;90.50;99413.40;223553;1265;142171;-85
2023/08/07 14:24:29;;;;;;;5.40;2.10;;;;;;;18.71;91.13;99403.48;224098;1265;139283;-91
2023/08/07 14:29:30;;;;;;;6.10;2.10;;;;;;;18.71;89.90;99397.44;223313;1265;140806;-85
2023/08/07 14:34:31;;;;;;;5.10;2.40;;;;;;;18.65;88.95;99401.41;224196;1265;96682;-86
2023/08/07 14:39:32;;;;;;;5.50;2.10;;;;;;;18.64;89.25;99406.45;223547;1265;141419;-89
2023/08/07 14:44:33;;;;;;;5.40;2.20;;;;;;;18.67;89.62;99402.69;223963;1265;138798;-90
2023/08/07 14:49:33;;;;;;;6.10;2.10;;;;;;;18.74;90.17;99406.80;223580;1265;140736;-89
2023/08/07 14:54:34;;;;;;;5.50;2.00;;;;;;;18.85;89.98;99401.92;224134;1265;139195;-89
2023/08/07 14:59:35;;;;;;;7.00;2.10;;;;;;;18.95;89.89;99402.72;223341;1265;142040;-87
2023/08/07 15:04:36;;;;;;;6.10;2.10;;;;;;;19.08;89.90;99400.98;224053;1265;97678;-88
2023/08/07 15:09:36;;;;;;;4.60;2.10;;;;;;;19.18;89.63;99395.73;223497;1265;140227;-85
2023/08/07 15:14:37;;;;;;;6.60;2.10;;;;;;;19.30;89.80;99393.04;224023;1265;139168;-86
2023/08/07 15:19:37;;;;;;;6.60;2.40;;;;;;;19.41;88.34;99393.93;223517;1265;140329;-86
2023/08/07 15:24:39;;;;;;;7.50;2.10;;;;;;;19.44;87.72;99397.66;223965;1265;138973;-92
2023/08/07 15:29:46;;;;;;;5.40;2.00;;;;;;;19.43;87.93;99397.60;223291;1266;141107;-91
2023/08/07 15:34:47;;;;;;;8.60;2.30;;;;;;;19.44;87.81;99400.98;224128;1265;111982;-89
2023/08/07 15:39:48;;;;;;;7.30;2.30;;;;;;;19.42;88.17;99407.29;223335;1265;140485;-87
2023/08/07 15:44:48;;;;;;;6.60;2.00;;;;;;;19.47;87.76;99409.79;224036;1265;139160;-86
2023/08/07 15:49:49;;;;;;;4.80;1.80;;;;;;;19.45;87.06;99417.71;223476;1265;140684;-92
2023/08/07 15:54:50;;;;;;;5.90;2.20;;;;;;;19.44;86.38;99415.73;224026;1265;138955;-85
2023/08/07 15:59:50;;;;;;;6.70;2.10;;;;;;;19.49;85.69;99422.58;223367;1265;141170;-85
2023/08/07 16:04:51;;;;;;;5.20;2.00;;;;;;;19.49;85.40;99423.44;224137;1268;95991;-88
2023/08/07 16:09:51;;;;;;;7.90;2.20;;;;;;;19.50;85.54;99428.96;223305;1265;141897;-86
2023/08/07 16:14:52;;;;;;;7.00;2.20;;;;;;;19.45;84.87;99425.27;224074;1265;138598;-90
2023/08/07 16:19:52;;;;;;;6.10;2.10;;;;;;;19.36;84.83;99425.33;223489;1265;140475;-92
2023/08/07 16:24:53;;;;;;;11.10;2.40;;;;;;;19.25;84.28;99418.09;224043;1265;138850;-87
2023/08/07 16:30:03;;;;;;;5.90;2.00;;;;;;;19.19;84.51;99418.75;223520;1265;141257;-95
2023/08/07 16:35:05;;;;;;;6.80;2.00;;;;;;;19.13;84.76;99418.41;223976;1265;111972;-91
2023/08/07 16:40:06;;;;;;;4.90;2.00;;;;;;;19.10;85.25;99422.61;223581;1265;140809;-91
2023/08/07 16:45:07;;;;;;;4.70;1.90;;;;;;;19.06;85.01;99425.80;223923;1268;139123;-89
2023/08/07 16:50:08;;;;;;;9.40;2.20;;;;;;;19.04;85.08;99425.62;223489;1265;141072;-89
2023/08/07 16:55:10;;;;;;;6.70;2.00;;;;;;;18.99;84.70;99430.74;224016;1265;138675;-88
2023/08/07 17:00:11;;;;;;;7.90;2.40;;;;;;;18.97;84.76;99431.89;223597;1265;142317;-88
2023/08/07 17:05:11;;;;;;;8.40;2.10;;;;;;;18.91;83.98;99427.73;223975;1266;138637;-90
2023/08/07 17:10:13;;;;;;;10.60;2.30;;;;;;;18.86;83.49;99430.70;223502;1265;140921;-88
2023/08/07 17:15:14;;;;;;;9.70;2.40;;;;;;;18.84;83.10;99434.63;224119;1268;138828;-92
2023/08/07 17:20:14;;;;;;;6.00;2.00;;;;;;;18.79;83.76;99440.62;223328;1265;140937;-88
2023/08/07 17:25:16;;;;;;;7.30;2.50;;;;;;;18.71;85.68;99450.08;224083;1266;139250;-88
2023/08/07 17:30:17;;;;;;;3.90;2.10;;;;;;;18.62;86.98;99452.42;223510;1269;140605;-87
2023/08/07 17:35:30;;;;;;;7.00;2.00;;;;;;;18.47;87.67;99456.40;224108;1265;139432;-93
2023/08/07 17:40:31;;;;;;;8.00;2.00;;;;;;;18.32;88.38;99459.16;223458;1266;140979;-88
2023/08/07 17:45:32;;;;;;;6.60;2.30;;;;;;;18.22;89.03;99464.52;224093;1265;139379;-92
2023/08/07 17:50:33;;;;;;;5.60;2.00;;;;;;;18.10;89.00;99477.52;223576;1265;141292;-88
2023/08/07 17:55:33;;;;;;;7.30;2.20;;;;;;;17.96;89.49;99477.44;223865;1265;139144;-90
2023/08/07 18:00:35;;;;;;;11.00;2.20;;;;;;;17.85;89.86;99482.23;223506;1265;140358;-87
2023/08/07 18:05:37;;;;;;;4.70;1.90;;;;;;;17.75;90.25;99484.98;224045;1266;138960;-93
2023/08/07 18:10:38;;;;;;;7.90;2.30;;;;;;;17.63;90.40;99493.41;223539;1264;140340;-90
2023/08/07 18:15:39;;;;;;;7.10;2.40;;;;;;;17.53;90.37;99497.15;223935;1265;138628;-90
2023/08/07 18:20:40;;;;;;;7.80;2.50;;;;;;;17.40;89.90;99505.48;223575;1265;140192;-94
2023/08/07 18:25:41;;;;;;;11.00;2.80;;;;;;;17.27;89.61;99514.78;223976;1266;138783;-91
2023/08/07 18:30:41;;;;;;;9.30;2.50;;;;;;;17.15;89.47;99517.44;223362;1265;140773;-90
2023/08/07 18:35:42;;;;;;;10.30;2.70;;;;;;;17.03;88.79;99520.91;223997;1267;138750;-89
2023/08/07 18:40:43;;;;;;;6.80;2.40;;;;;;;16.91;88.66;99523.16;223476;1266;142610;-89
2023/08/07 18:45:44;;;;;;;9.10;2.60;;;;;;;16.81;88.34;99530.37;224074;1266;138677;-92
2023/08/07 18:50:44;;;;;;;9.60;3.30;;;;;;;16.70;88.96;99530.59;223582;1267;141424;-90
2023/08/07 18:55:46;;;;;;;11.50;2.90;;;;;;;16.59;89.66;99532.55;224064;1264;138582;-94
2023/08/07 19:00:47;;;;;;;13.20;2.90;;;;;;;16.49;89.95;99538.89;223316;1268;141933;-92
2023/08/07 19:05:48;;;;;;;9.60;2.60;;;;;;;16.40;90.69;99543.48;224074;1265;140074;-92
2023/08/07 19:10:49;;;;;;;11.10;2.50;;;;;;;16.31;90.18;99545.91;223484;1268;142369;-88
2023/08/07 19:15:50;;;;;;;11.00;2.60;;;;;;;16.22;88.64;99547.56;223889;1268;139243;-87
2023/08/07 19:20:52;;;;;;;10.10;2.50;;;;;;;16.15;87.40;99551.81;223515;1266;141307;-89
2023/08/07 19:25:53;;;;;;;9.60;2.90;;;;;;;16.08;85.85;99556.84;223886;1268;138855;-88
2023/08/07 19:30:54;;;;;;;9.50;2.50;;;;;;;16.02;85.27;99568.71;223506;1267;141673;-90
2023/08/07 19:35:54;;;;;;;11.50;2.60;;;;;;;15.95;85.50;99583.95;224025;1265;138828;-91
2023/08/07 19:40:55;;;;;;;10.00;2.90;;;;;;;15.89;85.67;99584.41;223601;1267;140995;-91
2023/08/07 19:45:59;;;;;;;12.60;2.40;;;;;;;15.82;85.77;99590.92;224057;1268;139788;-87
2023/08/07 19:51:00;;;;;;;9.30;3.20;;;;;;;15.74;85.46;99591.03;223259;1268;141787;-90
2023/08/07 19:56:02;;;;;;;7.40;2.50;;;;;;;15.66;84.69;99594.14;223974;1267;139998;-90
2023/08/07 20:01:03;;;;;;;7.20;2.20;;;;;;;15.60;84.70;99602.77;223499;1265;140100;-95
2023/08/07 20:06:04;;;;;;;8.30;2.40;;;;;;;15.54;84.21;99604.02;223989;1268;138652;-92
2023/08/07 20:11:05;;;;;;;10.30;2.70;;;;;;;15.49;83.93;99604.05;223480;1267;140927;-89
2023/08/07 20:16:06;;;;;;;10.90;2.70;;;;;;;15.43;83.13;99608.77;224081;1264;138485;-92
2023/08/07 20:21:07;;;;;;;9.10;2.10;;;;;;;15.36;82.44;99611.44;223325;1268;140243;-94
2023/08/07 20:26:11;;;;;;;10.20;2.90;;;;;;;15.33;82.51;99618.88;224148;1266;139581;-96
2023/08/07 20:31:12;;;;;;;13.10;2.70;;;;;;;15.28;82.12;99621.66;223480;1265;141085;-91
2023/08/07 20:36:13;;;;;;;6.10;2.50;;;;;;;15.24;82.10;99625.05;223996;1265;138824;-92
2023/08/07 20:41:14;;;;;;;8.70;2.70;;;;;;;15.24;81.83;99636.39;223441;1266;140946;-95
2023/08/07 20:46:16;;;;;;;7.30;2.20;;;;;;;15.25;80.95;99636.13;224005;1265;96146;-94
2023/08/07 20:51:17;;;;;;;6.40;1.90;;;;;;;15.27;80.79;99641.86;223383;1266;140698;-91
2023/08/07 20:56:27;;;;;;;8.40;2.50;;;;;;;15.28;80.85;99646.20;224201;1266;137797;-96
2023/08/07 21:01:28;;;;;;;13.80;2.30;;;;;;;15.28;80.20;99653.81;223337;1265;140722;-93
2023/08/07 21:06:28;;;;;;;8.80;2.30;;;;;;;15.29;80.16;99656.81;223911;1266;137694;-90
2023/08/07 21:11:32;;;;;;;11.40;2.70;;;;;;;15.26;80.19;99657.10;223450;1266;140925;-94
2023/08/07 21:16:32;;;;;;;9.00;2.70;;;;;;;15.20;80.28;99663.39;223955;1267;95871;-92
2023/08/07 21:21:33;;;;;;;7.30;2.20;;;;;;;15.15;80.37;99673.23;223499;1266;140628;-93
2023/08/07 21:26:34;;;;;;;16.50;2.80;;;;;;;15.08;80.74;99677.33;223854;1267;139268;-94
2023/08/07 21:31:35;;;;;;;10.90;2.80;;;;;;;15.00;81.69;99682.39;223559;1267;139918;-94
2023/08/07 21:36:36;;;;;;;8.00;2.40;;;;;;;14.92;82.16;99678.89;223852;1267;139460;-91
2023/08/07 21:41:36;;;;;;;9.60;2.60;;;;;;;14.85;82.70;99680.06;222956;1265;636814;-92
2023/08/07 21:46:38;;;;;;;8.00;2.40;;;;;;;14.75;82.72;99673.28;223914;1267;96130;-90
2023/08/07 21:51:39;;;;;;;6.90;2.10;;;;;;;14.67;83.32;99670.17;223258;1266;140548;-87
2023/08/07 21:56:42;;;;;;;9.80;2.70;;;;;;;14.59;83.75;99665.58;223932;1266;138791;-88
2023/08/07 22:01:42;;;;;;;7.50;2.40;;;;;;;14.52;83.56;99661.89;223201;1267;140957;-87
2023/08/07 22:06:43;;;;;;;10.00;2.30;;;;;;;14.46;84.03;99669.20;223937;1265;138993;-93
2023/08/07 22:11:46;;;;;;;9.90;2.20;;;;;;;14.40;83.43;99678.53;223163;1265;141846;-87
2023/08/07 22:16:49;;;;;;;10.70;2.60;;;;;;;14.37;83.25;99690.14;223854;1267;96016;-86
2023/08/07 22:21:50;;;;;;;6.40;2.10;;;;;;;14.34;83.28;99700.00;223325;1265;140644;-87
2023/08/07 22:26:51;;;;;;;5.30;2.10;;;;;;;14.30;83.61;99708.04;223918;1265;139102;-87
2023/08/07 22:31:51;;;;;;;8.90;2.20;;;;;;;14.25;83.83;99717.77;223395;1265;142741;-88
2023/08/07 22:36:53;;;;;;;9.80;2.60;;;;;;;14.21;83.21;99714.67;223978;1265;139352;-86
2023/08/07 22:41:54;;;;;;;8.00;2.30;;;;;;;14.18;83.50;99714.86;223370;1265;140998;-87
2023/08/07 22:46:55;;;;;;;10.80;2.40;;;;;;;14.15;83.17;99725.02;223870;1266;108455;-87
2023/08/07 22:51:56;;;;;;;11.20;2.90;;;;;;;14.12;82.77;99722.37;223320;1265;140521;-85
2023/08/07 22:56:56;;;;;;;10.10;2.60;;;;;;;14.08;81.91;99722.97;223932;1265;138900;-88